Terminal Aerodrome Forecast
Issued by NWS Cleveland, OH

Home | Current Version | Previous Version | Text Only | Print | Product List | Glossary Off
Versions: 1 2 3 4 5 6 7 8 9 10 11 12 13 14 15

000
FTUS41 KCLE 191720
TAFCAK
TAF
KCAK 191720Z 1918/2018 26011KT P6SM SCT028 BKN035
      TEMPO 1918/1919 BKN028
     FM191900 28010KT P6SM VCTS SCT028CB BKN035
      TEMPO 1919/1921 -TSRA BKN028CB
     FM192200 31008KT P6SM SCT035 BKN200
     FM192300 32006KT P6SM FEW040 SCT250
     FM200200 00000KT P6SM FEW250=

USA.gov is the U.S. government's official web portal to all federal, state and local government web resources and services.